createdAt,value
2019-04-20T00:00:50.716Z,99.10
2019-04-20T00:03:39.405Z,99.00
2019-04-20T00:06:03.898Z,99.10
2019-04-20T00:08:35.972Z,99.20
2019-04-20T00:11:09.315Z,99.10
2019-04-20T00:13:40.654Z,99.20
2019-04-20T00:16:00.308Z,99.30
2019-04-20T00:18:36.880Z,99.30
2019-04-20T00:21:17.933Z,99.50
2019-04-20T00:23:48.652Z,99.40
2019-04-20T00:26:56.179Z,99.60
2019-04-20T00:29:12.699Z,99.60
2019-04-20T00:31:40.568Z,99.60
2019-04-20T00:34:06.102Z,99.60
2019-04-20T00:36:22.652Z,99.60
2019-04-20T00:38:54.710Z,99.60
2019-04-20T00:41:22.100Z,99.60
2019-04-20T00:43:49.192Z,99.80
2019-04-20T00:46:26.360Z,99.90
2019-04-20T00:48:53.729Z,99.70
2019-04-20T00:51:32.113Z,99.90
2019-04-20T00:53:48.423Z,99.90
2019-04-20T00:56:14.060Z,99.90
2019-04-20T00:58:51.956Z,99.90
2019-04-20T01:01:31.207Z,99.90
2019-04-20T01:03:58.469Z,99.90
2019-04-20T01:06:49.191Z,99.90
2019-04-20T01:09:09.912Z,99.90
2019-04-20T01:11:42.201Z,99.90
2019-04-20T01:14:10.644Z,99.90
2019-04-20T01:16:44.017Z,99.90
2019-04-20T01:19:04.755Z,99.90
2019-04-20T01:21:33.617Z,99.90
2019-04-20T01:24:04.539Z,99.90
2019-04-20T01:26:31.219Z,99.90
2019-04-20T01:29:13.409Z,99.90
2019-04-20T01:31:37.347Z,99.90
2019-04-20T01:34:06.267Z,99.90
2019-04-20T01:36:49.068Z,99.90
2019-04-20T01:39:09.415Z,99.90
2019-04-20T01:41:24.977Z,99.90
2019-04-20T01:43:52.311Z,99.90
2019-04-20T01:46:23.133Z,99.90
2019-04-20T01:48:48.833Z,99.90
2019-04-20T01:51:21.222Z,99.90
2019-04-20T01:54:21.232Z,99.90
2019-04-20T01:56:47.662Z,99.90
2019-04-20T01:59:40.313Z,99.90
2019-04-20T02:02:11.694Z,99.90
2019-04-20T02:04:46.059Z,99.90
2019-04-20T02:07:11.915Z,99.90
2019-04-20T02:09:48.498Z,99.90
2019-04-20T02:12:15.496Z,99.90
2019-04-20T02:14:44.620Z,99.90
2019-04-20T02:17:16.748Z,99.90
2019-04-20T02:19:57.204Z,99.90
2019-04-20T02:22:15.661Z,99.90
2019-04-20T02:24:34.400Z,99.90
2019-04-20T02:27:02.014Z,99.90
2019-04-20T02:29:53.340Z,99.90
2019-04-20T02:32:26.457Z,99.90
2019-04-20T02:35:27.891Z,99.90
2019-04-20T02:38:12.084Z,99.90
2019-04-20T02:40:39.664Z,99.90
2019-04-20T02:43:05.479Z,99.90
2019-04-20T02:45:33.090Z,99.90
2019-04-20T02:48:07.694Z,99.90
2019-04-20T02:50:43.412Z,99.90
2019-04-20T02:55:51.735Z,99.90
2019-04-20T02:58:18.308Z,99.90
2019-04-20T03:00:33.900Z,99.90
2019-04-20T03:02:52.862Z,99.90
2019-04-20T03:05:25.271Z,99.90
2019-04-20T03:07:57.242Z,99.90
2019-04-20T03:10:52.568Z,99.90
2019-04-20T03:13:18.617Z,99.90
2019-04-20T03:15:48.504Z,99.90
2019-04-20T03:18:14.996Z,99.90
2019-04-20T03:20:48.864Z,99.90
2019-04-20T03:26:09.592Z,99.90
2019-04-20T03:28:51.504Z,99.90
2019-04-20T03:31:45.095Z,99.90
2019-04-20T03:34:15.575Z,99.90
2019-04-20T03:36:25.165Z,99.90
2019-04-20T03:38:48.040Z,99.90
2019-04-20T03:41:09.736Z,99.90
2019-04-20T03:43:28.778Z,99.90
2019-04-20T03:46:04.205Z,99.90
2019-04-20T03:48:40.914Z,99.90
2019-04-20T03:51:14.810Z,99.90
2019-04-20T03:54:02.662Z,99.90
2019-04-20T03:56:36.534Z,99.90
2019-04-20T03:59:20.821Z,99.90
2019-04-20T04:02:22.867Z,99.90
2019-04-20T04:04:33.811Z,99.90
2019-04-20T04:06:50.966Z,99.90
2019-04-20T04:09:25.685Z,99.90
2019-04-20T04:11:57.616Z,99.90
2019-04-20T04:14:11.549Z,99.90
2019-04-20T04:16:46.984Z,99.90
2019-04-20T04:19:16.149Z,99.90
2019-04-20T04:21:53.910Z,99.90
2019-04-20T04:24:21.402Z,99.90
2019-04-20T04:26:51.202Z,99.90
2019-04-20T04:29:34.664Z,99.90
2019-04-20T04:32:01.126Z,99.90
2019-04-20T04:34:22.990Z,99.90
2019-04-20T04:36:55.064Z,99.90
2019-04-20T04:39:27.477Z,99.90
2019-04-20T04:42:01.337Z,99.90
2019-04-20T04:44:15.210Z,99.90
2019-04-20T04:46:33.936Z,99.90
2019-04-20T04:49:13.305Z,99.90
2019-04-20T04:51:43.822Z,99.90
2019-04-20T04:54:10.123Z,99.90
2019-04-20T04:56:30.197Z,99.90
2019-04-20T04:58:58.190Z,99.90
2019-04-20T05:01:29.394Z,99.90
2019-04-20T05:04:21.363Z,99.90
2019-04-20T05:06:37.543Z,99.90
2019-04-20T05:09:00.224Z,99.90
2019-04-20T05:11:24.131Z,99.90
2019-04-20T05:13:58.474Z,99.90
2019-04-20T05:16:40.983Z,99.90
2019-04-20T05:19:13.371Z,99.90
2019-04-20T05:22:20.573Z,99.90
2019-04-20T05:24:33.858Z,99.90
2019-04-20T05:27:28.415Z,99.90
2019-04-20T05:29:39.045Z,99.90
2019-04-20T05:32:11.311Z,99.90
2019-04-20T05:34:58.226Z,99.90
2019-04-20T05:37:33.928Z,99.90
2019-04-20T05:39:59.024Z,99.90
2019-04-20T05:42:27.846Z,99.90
2019-04-20T05:45:07.553Z,99.90
2019-04-20T05:47:24.054Z,99.90
2019-04-20T05:49:45.300Z,99.90
2019-04-20T05:52:31.542Z,99.90
2019-04-20T05:54:52.362Z,99.90
2019-04-20T05:57:25.126Z,99.90
2019-04-20T05:59:51.592Z,99.90
2019-04-20T06:02:18.427Z,99.90
2019-04-20T06:07:18.348Z,99.90
2019-04-20T06:09:47.904Z,99.90
2019-04-20T06:12:33.071Z,99.90
2019-04-20T06:15:04.466Z,99.90
2019-04-20T06:17:58.449Z,99.90
2019-04-20T06:20:31.283Z,99.90
2019-04-20T06:23:08.226Z,99.90
2019-04-20T06:26:04.060Z,99.90
2019-04-20T06:28:17.302Z,99.90
2019-04-20T06:30:41.746Z,99.90
2019-04-20T06:34:08.823Z,99.90
2019-04-20T06:36:34.674Z,99.90
2019-04-20T06:39:04.797Z,99.90
2019-04-20T06:41:36.058Z,99.90
2019-04-20T06:43:56.062Z,99.90
2019-04-20T06:46:22.124Z,99.90
2019-04-20T06:48:53.859Z,99.90
2019-04-20T06:51:22.287Z,99.90
2019-04-20T06:53:52.784Z,99.90
2019-04-20T06:59:04.371Z,99.90
2019-04-20T07:01:37.062Z,99.90
2019-04-20T07:04:12.680Z,99.90
2019-04-20T07:06:48.316Z,99.90
2019-04-20T07:11:28.169Z,99.80
2019-04-20T07:13:44.458Z,99.50
2019-04-20T07:16:43.272Z,99.40
2019-04-20T07:19:15.370Z,98.80
2019-04-20T07:22:23.097Z,98.70
2019-04-20T07:24:40.345Z,98.40
2019-04-20T07:27:03.090Z,98.00
2019-04-20T07:29:38.206Z,97.90
2019-04-20T07:32:10.757Z,97.80
2019-04-20T07:34:51.748Z,97.60
2019-04-20T07:39:53.849Z,97.20
2019-04-20T07:42:27.256Z,96.90
2019-04-20T07:44:56.671Z,96.50
2019-04-20T07:47:22.009Z,96.10
2019-04-20T07:49:45.775Z,96.10
2019-04-20T07:51:57.627Z,96.10
2019-04-20T07:55:06.013Z,95.70
2019-04-20T07:57:14.536Z,95.50
2019-04-20T07:59:35.661Z,95.40
2019-04-20T08:02:40.876Z,95.40
2019-04-20T08:05:15.408Z,94.50
2019-04-20T08:07:47.473Z,94.40
2019-04-20T08:10:09.104Z,93.50
2019-04-20T08:13:03.379Z,93.30
2019-04-20T08:17:56.347Z,92.30
2019-04-20T08:20:21.774Z,92.30
2019-04-20T08:22:53.040Z,92.40
2019-04-20T08:25:13.797Z,92.00
2019-04-20T08:27:48.815Z,91.90
2019-04-20T08:30:42.276Z,92.00
2019-04-20T08:33:20.879Z,91.20
2019-04-20T08:35:56.441Z,91.10
2019-04-20T08:38:49.846Z,91.10
2019-04-20T08:40:50.315Z,90.70
2019-04-20T08:43:34.485Z,90.80
2019-04-20T08:45:49.284Z,90.30
2019-04-20T08:48:27.555Z,90.50
2019-04-20T08:50:45.201Z,90.10
2019-04-20T08:53:23.171Z,90.00
2019-04-20T08:55:43.895Z,90.00
2019-04-20T08:57:54.368Z,90.10
2019-04-20T09:00:29.733Z,89.90
2019-04-20T09:02:55.620Z,89.30
2019-04-20T09:05:30.218Z,88.90
2019-04-20T09:08:02.553Z,89.60
2019-04-20T09:10:38.978Z,89.60
2019-04-20T09:13:03.619Z,88.80
2019-04-20T09:15:21.031Z,88.70
2019-04-20T09:17:59.086Z,88.40
2019-04-20T09:20:31.777Z,88.60
2019-04-20T09:23:27.222Z,88.50
2019-04-20T09:26:01.925Z,87.20
2019-04-20T09:28:30.854Z,87.40
2019-04-20T09:31:10.769Z,87.40
2019-04-20T09:34:06.031Z,86.60
2019-04-20T09:36:40.864Z,86.60
2019-04-20T09:39:21.116Z,86.30
2019-04-20T09:42:03.307Z,84.70
2019-04-20T09:44:39.769Z,85.10
2019-04-20T09:47:02.956Z,85.30
2019-04-20T09:49:42.752Z,85.30
2019-04-20T09:52:13.334Z,85.30
2019-04-20T09:54:48.256Z,82.90
2019-04-20T09:57:13.744Z,83.00
2019-04-20T09:59:44.670Z,83.00
2019-04-20T10:02:05.444Z,83.00
2019-04-20T10:04:25.702Z,83.10
2019-04-20T10:06:55.131Z,80.60
2019-04-20T10:09:28.008Z,81.00
2019-04-20T10:11:53.211Z,80.70
2019-04-20T10:14:20.851Z,80.00
2019-04-20T10:16:49.596Z,80.50
2019-04-20T10:19:23.470Z,80.60
2019-04-20T10:21:46.483Z,80.20
2019-04-20T10:24:14.651Z,80.10
2019-04-20T10:26:42.786Z,77.30
2019-04-20T10:29:10.164Z,77.20
2019-04-20T10:31:42.566Z,77.40
2019-04-20T10:34:07.392Z,77.10
2019-04-20T10:36:57.589Z,75.90
2019-04-20T10:39:26.560Z,76.10
2019-04-20T10:41:58.702Z,76.00
2019-04-20T10:44:23.121Z,76.00
2019-04-20T10:46:51.181Z,75.60
2019-04-20T10:49:19.382Z,73.20
2019-04-20T10:51:47.569Z,73.10
2019-04-20T10:54:16.042Z,73.10
2019-04-20T10:56:43.766Z,73.00
2019-04-20T10:59:11.868Z,72.90
2019-04-20T11:01:40.062Z,73.20
2019-04-20T11:04:08.469Z,73.20
2019-04-20T11:06:36.476Z,72.90
2019-04-20T11:09:06.740Z,72.70
2019-04-20T11:11:35.437Z,71.10
2019-04-20T11:14:11.550Z,71.10
2019-04-20T11:16:33.020Z,70.50
2019-04-20T11:19:01.040Z,69.40
2019-04-20T11:21:28.383Z,69.90
2019-04-20T11:23:56.255Z,69.90
2019-04-20T11:26:24.402Z,70.00
2019-04-20T11:28:52.468Z,69.60
2019-04-20T11:31:20.090Z,69.00
2019-04-20T11:33:48.044Z,68.50
2019-04-20T11:36:17.023Z,68.10
2019-04-20T11:38:44.907Z,67.50
2019-04-20T11:41:18.910Z,67.00
2019-04-20T11:43:41.938Z,66.50
2019-04-20T11:46:09.466Z,63.50
2019-04-20T11:48:37.222Z,63.60
2019-04-20T11:51:05.542Z,63.40
2019-04-20T11:53:33.916Z,62.90
2019-04-20T11:56:02.572Z,62.20
2019-04-20T11:58:30.309Z,60.50
2019-04-20T12:01:06.289Z,59.20
2019-04-20T12:03:34.194Z,58.50
2019-04-20T12:06:00.763Z,57.80
2019-04-20T12:08:27.060Z,57.60
2019-04-20T12:10:58.529Z,57.20
2019-04-20T12:13:24.831Z,57.00
2019-04-20T12:15:53.766Z,56.70
2019-04-20T12:18:21.264Z,56.40
2019-04-20T12:20:48.581Z,56.20
2019-04-20T12:23:16.101Z,56.10
2019-04-20T12:25:44.606Z,56.00
2019-04-20T12:28:13.572Z,55.90
2019-04-20T12:30:41.932Z,55.50
2019-04-20T12:33:09.561Z,55.30
2019-04-20T12:35:38.418Z,53.60
2019-04-20T12:38:07.213Z,55.20
2019-04-20T12:40:35.374Z,55.10
2019-04-20T12:43:02.911Z,53.20
2019-04-20T12:45:31.506Z,54.00
2019-04-20T12:47:59.644Z,53.90
2019-04-20T12:50:27.646Z,53.40
2019-04-20T12:52:54.985Z,53.00
2019-04-20T12:55:22.861Z,52.60
2019-04-20T12:57:50.387Z,50.40
2019-04-20T13:00:19.485Z,50.60
2019-04-20T13:02:47.399Z,50.70
2019-04-20T13:05:15.380Z,50.80
2019-04-20T13:07:47.831Z,50.90
2019-04-20T13:10:13.697Z,50.80
2019-04-20T13:13:00.489Z,50.70
2019-04-20T13:15:56.445Z,50.50
2019-04-20T13:18:37.060Z,50.40
2019-04-20T13:21:05.061Z,50.30
2019-04-20T13:23:33.096Z,50.40
2019-04-20T13:26:02.186Z,50.80
2019-04-20T13:28:30.737Z,51.20
2019-04-20T13:30:59.668Z,51.30
2019-04-20T13:33:27.324Z,51.40
2019-04-20T13:35:54.815Z,51.40
2019-04-20T13:38:22.533Z,51.00
2019-04-20T13:40:49.991Z,51.20
2019-04-20T13:43:18.080Z,51.30
2019-04-20T13:45:45.327Z,51.50
2019-04-20T13:48:13.043Z,52.30
2019-04-20T13:50:40.294Z,52.40
2019-04-20T13:53:07.645Z,52.50
2019-04-20T13:55:35.933Z,52.40
2019-04-20T13:58:08.106Z,52.50
2019-04-20T14:00:56.954Z,52.40
2019-04-20T14:03:25.179Z,52.20
2019-04-20T14:05:52.959Z,52.30
2019-04-20T14:08:25.337Z,52.30
2019-04-20T14:10:53.463Z,52.70
2019-04-20T14:13:23.543Z,52.40
2019-04-20T14:15:51.239Z,51.00
2019-04-20T14:18:19.425Z,51.00
2019-04-20T14:20:47.941Z,51.50
2019-04-20T14:23:15.411Z,51.90
2019-04-20T14:25:42.875Z,52.20
2019-04-20T14:28:11.368Z,52.70
2019-04-20T14:30:40.107Z,53.00
2019-04-20T14:33:08.552Z,53.30
2019-04-20T14:35:36.917Z,53.70
2019-04-20T14:38:04.294Z,54.10
2019-04-20T14:40:32.469Z,55.20
2019-04-20T14:43:00.432Z,56.90
2019-04-20T14:45:28.994Z,58.50
2019-04-20T14:48:01.659Z,61.40
2019-04-20T14:50:29.828Z,63.90
2019-04-20T14:52:57.582Z,63.80
2019-04-20T14:55:25.797Z,64.50
2019-04-20T14:57:55.252Z,64.50
2019-04-20T15:00:41.609Z,64.70
2019-04-20T15:03:50.950Z,64.80
2019-04-20T15:06:15.806Z,68.40
2019-04-20T15:08:43.102Z,68.40
2019-04-20T15:11:10.331Z,67.80
2019-04-20T15:13:38.644Z,68.20
2019-04-20T15:16:06.694Z,68.20
2019-04-20T15:18:38.075Z,68.50
2019-04-20T15:21:06.468Z,68.70
2019-04-20T15:23:35.275Z,68.30
2019-04-20T15:26:02.682Z,68.90
2019-04-20T15:28:30.297Z,69.90
2019-04-20T15:30:58.320Z,69.80
2019-04-20T15:33:25.689Z,70.20
2019-04-20T15:35:52.985Z,70.90
2019-04-20T15:38:20.888Z,71.00
2019-04-20T15:40:48.992Z,70.20
2019-04-20T15:43:20.619Z,70.00
2019-04-20T15:45:45.714Z,70.30
2019-04-20T15:48:14.172Z,70.50
2019-04-20T15:50:41.744Z,70.80
2019-04-20T15:53:08.982Z,71.20
2019-04-20T15:55:39.536Z,71.40
2019-04-20T15:58:06.740Z,71.40
2019-04-20T16:00:36.314Z,71.50
2019-04-20T16:03:11.495Z,71.40
2019-04-20T16:05:49.369Z,72.10
2019-04-20T16:08:48.334Z,72.40
2019-04-20T16:11:17.191Z,72.30
2019-04-20T16:13:49.928Z,72.60
2019-04-20T16:16:14.244Z,72.80
2019-04-20T16:18:43.075Z,73.00
2019-04-20T16:21:16.082Z,73.00
2019-04-20T16:23:58.942Z,73.10
2019-04-20T16:26:51.956Z,73.40
2019-04-20T16:29:19.843Z,73.50
2019-04-20T16:31:49.055Z,73.80
2019-04-20T16:34:16.444Z,74.00
2019-04-20T16:36:44.509Z,74.00
2019-04-20T16:39:12.670Z,74.00
2019-04-20T16:41:40.276Z,74.00
2019-04-20T16:44:09.197Z,73.20
2019-04-20T16:46:36.618Z,73.30
2019-04-20T16:49:05.234Z,73.70
2019-04-20T16:51:32.727Z,73.80
2019-04-20T16:53:59.966Z,72.90
2019-04-20T16:56:28.624Z,73.20
2019-04-20T16:59:02.366Z,74.00
2019-04-20T17:01:25.626Z,74.20
2019-04-20T17:04:02.155Z,74.40
2019-04-20T17:06:22.607Z,75.10
2019-04-20T17:08:51.167Z,75.60
2019-04-20T17:11:18.733Z,76.00
2019-04-20T17:13:50.104Z,76.90
2019-04-20T17:16:15.607Z,77.40
2019-04-20T17:18:47.910Z,77.40
2019-04-20T17:21:22.781Z,76.80
2019-04-20T17:23:45.658Z,77.10
2019-04-20T17:26:19.316Z,77.80
2019-04-20T17:29:05.976Z,78.10
2019-04-20T17:31:53.789Z,78.40
2019-04-20T17:34:36.558Z,78.30
2019-04-20T17:36:52.630Z,78.50
2019-04-20T17:39:31.136Z,78.70
2019-04-20T17:42:10.137Z,78.80
2019-04-20T17:44:31.429Z,79.10
2019-04-20T17:47:00.631Z,79.50
2019-04-20T17:49:31.639Z,79.50
2019-04-20T17:52:16.032Z,79.00
2019-04-20T17:54:37.894Z,80.00
2019-04-20T17:57:09.031Z,80.10
2019-04-20T17:59:38.113Z,80.30
2019-04-20T18:02:53.470Z,80.40
2019-04-20T18:05:27.011Z,80.80
2019-04-20T18:07:58.700Z,80.80
2019-04-20T18:10:28.618Z,80.90
2019-04-20T18:12:45.813Z,81.00
2019-04-20T18:15:29.409Z,81.10
2019-04-20T18:18:24.489Z,81.00
2019-04-20T18:21:01.115Z,81.30
2019-04-20T18:23:37.502Z,81.40
2019-04-20T18:26:25.592Z,81.60
2019-04-20T18:28:54.491Z,82.50
2019-04-20T18:31:19.580Z,82.40
2019-04-20T18:33:48.505Z,82.50
2019-04-20T18:36:23.378Z,83.60
2019-04-20T18:38:54.042Z,83.70
2019-04-20T18:41:28.353Z,83.90
2019-04-20T18:43:51.812Z,84.90
2019-04-20T18:46:29.376Z,84.30
2019-04-20T18:49:01.338Z,84.40
2019-04-20T18:51:12.485Z,84.60
2019-04-20T18:53:44.448Z,84.80
2019-04-20T18:56:09.482Z,84.70
2019-04-20T18:58:37.517Z,85.40
2019-04-20T19:01:05.407Z,85.20
2019-04-20T19:03:38.437Z,86.20
2019-04-20T19:06:02.263Z,86.20
2019-04-20T19:08:37.727Z,86.40
2019-04-20T19:11:04.087Z,86.60
2019-04-20T19:13:37.598Z,87.10
2019-04-20T19:16:25.594Z,87.20
2019-04-20T19:19:12.525Z,87.90
2019-04-20T19:21:33.358Z,87.30
2019-04-20T19:24:07.733Z,87.50
2019-04-20T19:26:30.344Z,87.80
2019-04-20T19:29:09.156Z,89.10
2019-04-20T19:31:42.704Z,89.30
2019-04-20T19:34:16.825Z,89.50
2019-04-20T19:36:34.130Z,89.10
2019-04-20T19:39:11.072Z,90.10
2019-04-20T19:41:36.176Z,91.10
2019-04-20T19:44:09.162Z,91.10
2019-04-20T19:46:51.183Z,90.60
2019-04-20T19:49:01.840Z,90.60
2019-04-20T19:51:55.669Z,90.80
2019-04-20T19:54:24.309Z,90.50
2019-04-20T19:56:46.731Z,90.70
2019-04-20T19:59:13.678Z,90.80
2019-04-20T20:01:49.678Z,90.70
2019-04-20T20:04:19.587Z,90.70
2019-04-20T20:06:51.910Z,90.80
2019-04-20T20:09:18.080Z,90.60
2019-04-20T20:11:46.759Z,90.90
2019-04-20T20:14:19.540Z,91.10
2019-04-20T20:17:04.189Z,91.30
2019-04-20T20:19:29.507Z,91.30
2019-04-20T20:21:59.051Z,91.20
2019-04-20T20:24:14.406Z,91.40
2019-04-20T20:26:48.781Z,91.40
2019-04-20T20:29:23.130Z,91.80
2019-04-20T20:32:02.293Z,91.80
2019-04-20T20:34:24.398Z,91.80
2019-04-20T20:36:47.142Z,91.60
2019-04-20T20:39:20.046Z,91.40
2019-04-20T20:41:53.093Z,91.60
2019-04-20T20:44:26.121Z,91.70
2019-04-20T20:46:56.953Z,91.70
2019-04-20T20:49:26.646Z,91.90
2019-04-20T20:52:02.184Z,92.10
2019-04-20T20:54:25.821Z,91.80
2019-04-20T20:56:51.103Z,92.10
2019-04-20T20:59:13.980Z,91.90
2019-04-20T21:01:47.988Z,92.20
2019-04-20T21:04:07.388Z,92.00
2019-04-20T21:06:34.943Z,92.20
2019-04-20T21:09:05.016Z,92.40
2019-04-20T21:11:35.739Z,92.40
2019-04-20T21:14:04.455Z,92.70
2019-04-20T21:16:36.769Z,92.30
2019-04-20T21:19:18.638Z,92.60
2019-04-20T21:21:42.568Z,92.50
2019-04-20T21:24:15.683Z,92.90
2019-04-20T21:26:44.026Z,92.90
2019-04-20T21:29:10.651Z,93.10
2019-04-20T21:31:43.786Z,93.30
2019-04-20T21:34:14.872Z,93.30
2019-04-20T21:36:40.881Z,93.30
2019-04-20T21:39:16.507Z,93.30
2019-04-20T21:41:40.789Z,93.50
2019-04-20T21:44:16.749Z,93.60
2019-04-20T21:46:45.746Z,93.60
2019-04-20T21:49:23.657Z,93.30
2019-04-20T21:51:49.343Z,93.50
2019-04-20T21:54:12.037Z,93.50
2019-04-20T21:56:52.463Z,93.80
2019-04-20T21:59:16.639Z,93.90
2019-04-20T22:01:46.362Z,93.70
2019-04-20T22:04:08.375Z,93.80
2019-04-20T22:06:36.310Z,93.90
2019-04-20T22:09:09.063Z,93.90
2019-04-20T22:11:37.872Z,93.90
2019-04-20T22:14:11.406Z,93.80
2019-04-20T22:16:38.940Z,94.30
2019-04-20T22:19:17.271Z,94.10
2019-04-20T22:21:46.321Z,94.30
2019-04-20T22:24:13.796Z,94.10
2019-04-20T22:26:41.615Z,94.10
2019-04-20T22:29:00.548Z,94.20
2019-04-20T22:31:27.935Z,94.10
2019-04-20T22:33:56.375Z,94.40
2019-04-20T22:36:25.965Z,94.70
2019-04-20T22:39:13.760Z,94.70
2019-04-20T22:41:53.616Z,94.60
2019-04-20T22:44:21.369Z,94.40
2019-04-20T22:46:48.141Z,94.40
2019-04-20T22:49:35.132Z,94.50
2019-04-20T22:51:55.559Z,94.60
2019-04-20T22:54:27.889Z,94.60
2019-04-20T22:56:55.041Z,94.60
2019-04-20T22:59:16.822Z,94.70
2019-04-20T23:01:49.862Z,94.80
2019-04-20T23:04:10.851Z,94.90
2019-04-20T23:06:43.847Z,95.00
2019-04-20T23:09:11.673Z,95.00
2019-04-20T23:11:40.410Z,95.00
2019-04-20T23:14:08.766Z,95.10
2019-04-20T23:16:43.198Z,95.10
2019-04-20T23:19:05.470Z,95.00
2019-04-20T23:21:34.016Z,95.00
2019-04-20T23:24:07.308Z,94.90
2019-04-20T23:26:35.967Z,95.10
2019-04-20T23:29:02.442Z,95.20
2019-04-20T23:31:30.336Z,95.30
2019-04-20T23:34:01.413Z,95.20
2019-04-20T23:36:36.501Z,95.30
2019-04-20T23:38:59.821Z,95.40
2019-04-20T23:41:25.954Z,95.40
2019-04-20T23:44:03.971Z,95.30
2019-04-20T23:46:41.153Z,95.50
2019-04-20T23:49:54.339Z,95.60
2019-04-20T23:52:32.414Z,95.60
2019-04-20T23:54:38.757Z,95.40
2019-04-20T23:57:05.947Z,95.80
2019-04-20T23:59:39.054Z,95.50
